createdAt,value
2019-05-08T00:01:54.619Z,74.07
2019-05-08T00:04:21.991Z,73.99
2019-05-08T00:06:47.979Z,74.27
2019-05-08T00:09:14.069Z,74.03
2019-05-08T00:11:40.084Z,74.14
2019-05-08T00:14:06.192Z,74.30
2019-05-08T00:16:32.980Z,74.49
2019-05-08T00:18:59.226Z,74.06
2019-05-08T00:21:25.242Z,74.21
2019-05-08T00:23:52.020Z,74.14
2019-05-08T00:26:18.110Z,74.17
2019-05-08T00:28:44.149Z,73.95
2019-05-08T00:31:23.784Z,73.52
2019-05-08T00:33:54.601Z,73.68
2019-05-08T00:36:22.478Z,73.87
2019-05-08T00:38:48.536Z,73.91
2019-05-08T00:41:14.524Z,73.87
2019-05-08T00:43:41.998Z,73.94
2019-05-08T00:46:08.164Z,74.11
2019-05-08T00:48:34.188Z,74.62
2019-05-08T00:51:02.558Z,74.76
2019-05-08T00:53:28.179Z,75.05
2019-05-08T00:55:58.108Z,74.64
2019-05-08T00:58:27.931Z,75.20
2019-05-08T01:00:55.836Z,75.52
2019-05-08T01:03:22.323Z,75.55
2019-05-08T01:05:48.480Z,75.91
2019-05-08T01:08:14.460Z,76.36
2019-05-08T01:10:42.568Z,76.32
2019-05-08T01:13:08.567Z,76.21
2019-05-08T01:15:34.566Z,76.11
2019-05-08T01:18:02.825Z,76.51
2019-05-08T01:20:28.568Z,76.80
2019-05-08T01:22:54.581Z,77.09
2019-05-08T01:25:21.848Z,76.84
2019-05-08T01:27:52.179Z,77.28
2019-05-08T01:30:16.445Z,77.19
2019-05-08T01:32:42.497Z,76.95
2019-05-08T01:35:08.524Z,76.94
2019-05-08T01:37:36.445Z,76.65
2019-05-08T01:40:15.344Z,75.94
2019-05-08T01:42:42.780Z,75.80
2019-05-08T01:45:12.028Z,76.45
2019-05-08T01:47:37.493Z,76.73
2019-05-08T01:50:05.098Z,76.97
2019-05-08T01:52:32.638Z,77.10
2019-05-08T01:54:58.997Z,76.41
2019-05-08T01:57:24.982Z,76.29
2019-05-08T01:59:52.818Z,76.39
2019-05-08T02:02:18.921Z,76.58
2019-05-08T02:04:44.902Z,76.32
2019-05-08T02:07:12.243Z,76.52
2019-05-08T02:09:38.416Z,75.94
2019-05-08T02:12:04.398Z,76.29
2019-05-08T02:14:31.949Z,76.08
2019-05-08T02:16:58.252Z,76.05
2019-05-08T02:19:24.251Z,75.68
2019-05-08T02:21:57.836Z,75.89
2019-05-08T02:24:42.630Z,76.10
2019-05-08T02:27:12.120Z,76.23
2019-05-08T02:29:38.288Z,76.25
2019-05-08T02:32:04.382Z,76.09
2019-05-08T02:34:30.345Z,76.16
2019-05-08T02:36:59.439Z,76.07
2019-05-08T02:39:24.396Z,76.40
2019-05-08T02:41:50.880Z,76.52
2019-05-08T02:44:19.615Z,76.59
2019-05-08T02:46:44.936Z,76.53
2019-05-08T02:49:10.947Z,76.20
2019-05-08T02:51:37.069Z,76.69
2019-05-08T02:54:03.341Z,76.31
2019-05-08T02:56:31.493Z,76.18
2019-05-08T02:59:03.700Z,76.12
2019-05-08T03:01:29.764Z,76.07
2019-05-08T03:03:55.047Z,75.77
2019-05-08T03:06:21.109Z,75.78
2019-05-08T03:08:50.174Z,75.48
2019-05-08T03:11:15.039Z,75.91
2019-05-08T03:13:41.366Z,75.93
2019-05-08T03:16:07.449Z,75.98
2019-05-08T03:18:33.438Z,75.77
2019-05-08T03:21:01.215Z,75.64
2019-05-08T03:23:30.079Z,75.95
2019-05-08T03:25:59.834Z,75.95
2019-05-08T03:28:25.132Z,76.03
2019-05-08T03:30:53.893Z,75.94
2019-05-08T03:33:23.676Z,76.03
2019-05-08T03:35:46.996Z,76.20
2019-05-08T03:38:13.107Z,76.07
2019-05-08T03:40:40.530Z,76.70
2019-05-08T03:43:06.705Z,76.61
2019-05-08T03:45:40.442Z,76.72
2019-05-08T03:48:05.133Z,77.09
2019-05-08T03:50:32.254Z,77.88
2019-05-08T03:53:00.430Z,77.40
2019-05-08T03:55:26.194Z,77.29
2019-05-08T03:57:52.262Z,77.42
2019-05-08T04:00:20.843Z,77.84
2019-05-08T04:02:46.228Z,77.97
2019-05-08T04:05:12.276Z,77.91
2019-05-08T04:07:41.078Z,77.24
2019-05-08T04:10:06.596Z,77.52
2019-05-08T04:12:32.596Z,77.90
2019-05-08T04:15:01.080Z,77.39
2019-05-08T04:17:30.278Z,77.15
2019-05-08T04:19:56.353Z,76.94
2019-05-08T04:22:22.482Z,76.75
2019-05-08T04:24:50.509Z,76.55
2019-05-08T04:27:16.440Z,76.48
2019-05-08T04:29:52.049Z,76.40
2019-05-08T04:32:11.252Z,76.13
2019-05-08T04:34:37.397Z,76.10
2019-05-08T04:37:03.433Z,75.82
2019-05-08T04:39:30.322Z,75.73
2019-05-08T04:41:59.972Z,75.83
2019-05-08T04:44:25.030Z,75.64
2019-05-08T04:46:52.903Z,75.71
2019-05-08T04:49:21.942Z,75.78
2019-05-08T04:51:47.137Z,75.78
2019-05-08T04:54:20.787Z,75.32
2019-05-08T04:56:49.768Z,75.26
2019-05-08T04:59:14.776Z,74.91
2019-05-08T05:01:42.719Z,74.77
2019-05-08T05:04:11.419Z,74.64
2019-05-08T05:06:40.721Z,74.17
2019-05-08T05:09:06.874Z,74.46
2019-05-08T05:11:33.280Z,74.23
2019-05-08T05:14:00.056Z,74.36
2019-05-08T05:16:29.906Z,74.01
2019-05-08T05:18:56.280Z,74.16
2019-05-08T05:21:22.468Z,73.81
2019-05-08T05:23:50.359Z,73.71
2019-05-08T05:26:16.393Z,73.50
2019-05-08T05:28:42.381Z,73.81
2019-05-08T05:31:09.076Z,73.98
2019-05-08T05:33:35.280Z,73.74
2019-05-08T05:36:01.304Z,73.56
2019-05-08T05:38:29.591Z,73.46
2019-05-08T05:41:03.224Z,73.46
2019-05-08T05:43:31.099Z,73.45
2019-05-08T05:45:59.390Z,72.91
2019-05-08T05:48:25.100Z,73.18
2019-05-08T05:50:51.083Z,73.17
2019-05-08T05:53:19.425Z,73.12
2019-05-08T05:55:45.055Z,72.53
2019-05-08T05:58:11.059Z,72.30
2019-05-08T06:00:40.550Z,72.27
2019-05-08T06:03:05.148Z,72.35
2019-05-08T06:05:31.258Z,72.34
2019-05-08T06:07:57.388Z,72.00
2019-05-08T06:10:23.512Z,71.91
2019-05-08T06:12:49.653Z,71.59
2019-05-08T06:15:15.787Z,70.52
2019-05-08T06:18:00.230Z,70.50
2019-05-08T06:20:26.437Z,70.05
2019-05-08T06:22:52.473Z,70.78
2019-05-08T06:25:22.964Z,69.92
2019-05-08T06:27:49.628Z,70.18
2019-05-08T06:30:19.729Z,69.57
2019-05-08T06:32:45.932Z,69.04
2019-05-08T06:35:12.160Z,68.74
2019-05-08T06:37:40.188Z,67.58
2019-05-08T06:40:07.188Z,65.45
2019-05-08T06:42:34.103Z,64.00
2019-05-08T06:45:20.083Z,63.81
2019-05-08T06:48:03.033Z,63.41
2019-05-08T06:50:29.899Z,60.99
2019-05-08T06:52:56.207Z,60.87
2019-05-08T06:55:22.344Z,60.33
2019-05-08T06:57:50.076Z,60.13
2019-05-08T07:00:19.354Z,58.91
2019-05-08T07:02:45.524Z,58.48
2019-05-08T07:05:11.651Z,58.37
2019-05-08T07:07:39.319Z,57.52
2019-05-08T07:10:05.746Z,56.32
2019-05-08T07:12:31.783Z,56.11
2019-05-08T07:14:59.781Z,55.85
2019-05-08T07:17:42.661Z,56.06
2019-05-08T07:20:16.797Z,54.28
2019-05-08T07:22:42.865Z,54.57
2019-05-08T07:25:09.438Z,55.02
2019-05-08T07:27:35.537Z,54.68
2019-05-08T07:30:20.372Z,54.68
2019-05-08T07:32:49.476Z,53.35
2019-05-08T07:35:15.668Z,53.55
2019-05-08T07:37:41.641Z,53.98
2019-05-08T07:40:09.710Z,53.60
2019-05-08T07:42:35.874Z,51.82
2019-05-08T07:45:02.623Z,52.57
2019-05-08T07:47:29.236Z,51.91
2019-05-08T07:49:55.763Z,50.76
2019-05-08T07:52:21.797Z,50.67
2019-05-08T07:54:49.842Z,50.22
2019-05-08T07:57:15.999Z,48.64
2019-05-08T07:59:42.225Z,49.03
2019-05-08T08:02:09.585Z,48.99
2019-05-08T08:04:39.515Z,48.86
2019-05-08T08:07:06.256Z,49.10
2019-05-08T08:09:32.383Z,48.36
2019-05-08T08:12:00.569Z,48.27
2019-05-08T08:14:26.355Z,48.42
2019-05-08T08:16:59.752Z,47.50
2019-05-08T08:19:25.177Z,46.49
2019-05-08T08:21:51.202Z,45.40
2019-05-08T08:24:19.655Z,45.75
2019-05-08T08:26:45.180Z,45.14
2019-05-08T08:29:11.189Z,44.14
2019-05-08T08:31:42.579Z,43.22
2019-05-08T08:34:05.127Z,42.60
2019-05-08T08:36:34.876Z,43.04
2019-05-08T08:39:00.031Z,43.56
2019-05-08T08:41:26.299Z,42.89
2019-05-08T08:43:52.452Z,42.57
2019-05-08T08:46:23.219Z,42.58
2019-05-08T08:48:53.905Z,42.79
2019-05-08T08:51:24.584Z,42.27
2019-05-08T08:53:52.481Z,42.65
2019-05-08T08:56:20.547Z,41.40
2019-05-08T08:58:46.413Z,41.17
2019-05-08T09:01:12.459Z,40.02
2019-05-08T09:03:39.926Z,40.18
2019-05-08T09:06:06.114Z,40.79
2019-05-08T09:08:32.080Z,39.84
2019-05-08T09:11:00.300Z,40.23
2019-05-08T09:13:25.960Z,39.93
2019-05-08T09:15:51.981Z,39.73
2019-05-08T09:18:19.572Z,39.48
2019-05-08T09:20:45.806Z,38.92
2019-05-08T09:23:11.822Z,38.53
2019-05-08T09:25:39.305Z,37.74
2019-05-08T09:28:05.771Z,37.91
2019-05-08T09:30:31.863Z,38.22
2019-05-08T09:33:03.328Z,38.43
2019-05-08T09:35:30.952Z,37.42
2019-05-08T09:37:57.121Z,38.50
2019-05-08T09:40:23.116Z,38.38
2019-05-08T09:42:49.522Z,38.35
2019-05-08T09:45:20.094Z,38.72
2019-05-08T09:47:46.078Z,38.63
2019-05-08T09:50:15.893Z,38.83
2019-05-08T09:52:42.278Z,39.19
2019-05-08T09:55:10.411Z,40.47
2019-05-08T09:57:37.967Z,40.95
2019-05-08T10:00:04.856Z,39.61
2019-05-08T10:02:45.779Z,38.25
2019-05-08T10:05:03.533Z,35.92
2019-05-08T10:07:30.461Z,34.41
2019-05-08T10:09:58.904Z,35.24
2019-05-08T10:12:24.678Z,37.28
2019-05-08T10:14:50.710Z,38.77
2019-05-08T10:17:16.723Z,39.13
2019-05-08T10:19:42.711Z,38.19
2019-05-08T10:22:09.618Z,37.65
2019-05-08T10:24:35.903Z,36.52
2019-05-08T10:27:03.443Z,36.19
2019-05-08T10:29:30.156Z,37.11
2019-05-08T10:31:56.431Z,37.70
2019-05-08T10:34:22.573Z,37.96
2019-05-08T10:36:50.395Z,37.00
2019-05-08T10:39:16.500Z,38.52
2019-05-08T10:41:44.368Z,39.02
2019-05-08T10:44:10.384Z,37.88
2019-05-08T10:46:39.548Z,38.31
2019-05-08T10:49:05.735Z,38.33
2019-05-08T10:51:31.814Z,39.22
2019-05-08T10:54:00.029Z,40.45
2019-05-08T10:56:25.768Z,40.32
2019-05-08T10:58:51.776Z,39.90
2019-05-08T11:01:20.014Z,40.01
2019-05-08T11:03:45.903Z,39.55
2019-05-08T11:06:19.917Z,40.34
2019-05-08T11:09:00.343Z,40.22
2019-05-08T11:11:30.640Z,40.83
2019-05-08T11:13:56.407Z,40.81
2019-05-08T11:16:22.543Z,40.20
2019-05-08T11:18:50.111Z,40.33
2019-05-08T11:21:16.356Z,39.95
2019-05-08T11:23:42.428Z,39.30
2019-05-08T11:26:09.377Z,40.25
2019-05-08T11:28:35.464Z,41.04
2019-05-08T11:31:01.539Z,41.55
2019-05-08T11:33:36.245Z,42.17
2019-05-08T11:35:56.348Z,42.66
2019-05-08T11:38:22.513Z,42.64
2019-05-08T11:40:50.376Z,42.59
2019-05-08T11:43:33.053Z,42.68
2019-05-08T11:46:01.031Z,42.34
2019-05-08T11:48:27.042Z,42.30
2019-05-08T11:50:55.266Z,42.47
2019-05-08T11:53:21.040Z,42.63
2019-05-08T11:55:47.059Z,41.80
2019-05-08T11:58:13.219Z,41.73
2019-05-08T12:00:41.665Z,41.32
2019-05-08T12:03:09.610Z,41.31
2019-05-08T12:05:35.368Z,41.01
2019-05-08T12:08:01.458Z,40.76
2019-05-08T12:10:29.870Z,40.86
2019-05-08T12:12:55.423Z,40.59
2019-05-08T12:15:21.429Z,39.60
2019-05-08T12:17:48.812Z,39.23
2019-05-08T12:20:15.421Z,38.38
2019-05-08T12:22:41.424Z,38.68
2019-05-08T12:25:12.610Z,37.87
2019-05-08T12:27:39.844Z,36.56
2019-05-08T12:30:13.742Z,36.26
2019-05-08T12:32:41.640Z,37.10
2019-05-08T12:35:26.554Z,37.42
2019-05-08T12:37:54.556Z,38.03
2019-05-08T12:40:20.876Z,38.15
2019-05-08T12:42:50.003Z,38.38
2019-05-08T12:45:15.295Z,37.15
2019-05-08T12:47:41.290Z,36.74
2019-05-08T12:50:10.517Z,35.13
2019-05-08T12:52:36.642Z,35.80
2019-05-08T12:55:09.895Z,35.33
2019-05-08T12:57:36.027Z,35.84
2019-05-08T13:00:05.157Z,36.33
2019-05-08T13:02:31.280Z,36.32
2019-05-08T13:04:59.585Z,37.34
2019-05-08T13:07:25.789Z,37.24
2019-05-08T13:09:51.788Z,37.45
2019-05-08T13:12:19.361Z,36.68
2019-05-08T13:14:45.752Z,37.06
2019-05-08T13:17:11.794Z,37.34
2019-05-08T13:19:39.586Z,37.32
2019-05-08T13:22:05.677Z,37.67
2019-05-08T13:24:31.773Z,37.83
2019-05-08T13:27:00.184Z,38.15
2019-05-08T13:29:25.787Z,37.93
2019-05-08T13:31:52.117Z,38.36
2019-05-08T13:34:27.497Z,38.22
2019-05-08T13:36:46.153Z,38.06
2019-05-08T13:39:16.605Z,38.04
2019-05-08T13:41:42.459Z,38.19
2019-05-08T13:44:08.624Z,38.37
2019-05-08T13:46:36.513Z,38.09
2019-05-08T13:49:04.079Z,38.17
2019-05-08T13:51:41.631Z,38.81
2019-05-08T13:54:09.991Z,39.00
2019-05-08T13:56:41.718Z,38.63
2019-05-08T13:59:04.440Z,38.03
2019-05-08T14:01:35.551Z,37.83
2019-05-08T14:03:59.909Z,38.22
2019-05-08T14:06:26.027Z,38.30
2019-05-08T14:08:52.079Z,38.16
2019-05-08T14:11:20.134Z,38.53
2019-05-08T14:13:46.199Z,37.79
2019-05-08T14:16:12.323Z,38.19
2019-05-08T14:18:39.506Z,38.80
2019-05-08T14:21:05.964Z,37.65
2019-05-08T14:23:31.982Z,37.88
2019-05-08T14:25:59.065Z,38.18
2019-05-08T14:28:25.308Z,38.67
2019-05-08T14:30:51.407Z,38.78
2019-05-08T14:33:30.732Z,38.20
2019-05-08T14:35:59.820Z,38.69
2019-05-08T14:38:25.996Z,38.57
2019-05-08T14:40:52.014Z,38.49
2019-05-08T14:43:20.290Z,38.91
2019-05-08T14:45:45.925Z,39.10
2019-05-08T14:48:12.133Z,40.31
2019-05-08T14:50:40.153Z,39.70
2019-05-08T14:53:06.302Z,38.02
2019-05-08T14:55:32.359Z,37.32
2019-05-08T14:57:59.710Z,37.92
2019-05-08T15:00:32.770Z,38.34
2019-05-08T15:03:00.328Z,38.29
2019-05-08T15:05:26.647Z,37.92
2019-05-08T15:07:52.701Z,38.68
2019-05-08T15:10:19.745Z,38.92
2019-05-08T15:12:45.972Z,38.89
2019-05-08T15:15:12.087Z,39.18
2019-05-08T15:17:40.117Z,38.83
2019-05-08T15:20:06.465Z,39.02
2019-05-08T15:22:32.466Z,38.56
2019-05-08T15:25:00.130Z,39.22
2019-05-08T15:27:26.468Z,39.15
2019-05-08T15:30:00.677Z,39.42
2019-05-08T15:32:31.643Z,39.08
2019-05-08T15:34:59.530Z,39.48
2019-05-08T15:37:25.655Z,40.04
2019-05-08T15:39:51.644Z,39.95
2019-05-08T15:42:19.968Z,40.22
2019-05-08T15:44:45.625Z,40.51
2019-05-08T15:47:13.643Z,40.92
2019-05-08T15:49:59.629Z,41.39
2019-05-08T15:52:26.130Z,41.90
2019-05-08T15:54:52.473Z,41.67
2019-05-08T15:57:19.742Z,41.90
2019-05-08T15:59:46.279Z,42.46
2019-05-08T16:02:12.279Z,42.54
2019-05-08T16:04:39.468Z,42.92
2019-05-08T16:07:09.866Z,43.53
2019-05-08T16:09:36.105Z,43.88
2019-05-08T16:12:02.300Z,44.09
2019-05-08T16:14:30.240Z,44.26
2019-05-08T16:16:56.256Z,43.96
2019-05-08T16:19:22.329Z,44.05
2019-05-08T16:21:48.439Z,44.30
2019-05-08T16:24:14.688Z,44.44
2019-05-08T16:26:40.844Z,44.72
2019-05-08T16:29:07.024Z,45.14
2019-05-08T16:31:34.997Z,45.72
2019-05-08T16:34:04.623Z,46.10
2019-05-08T16:36:42.441Z,47.26
2019-05-08T16:38:59.640Z,48.30
2019-05-08T16:41:27.362Z,49.00
2019-05-08T16:43:53.651Z,50.05
2019-05-08T16:46:23.540Z,50.16
2019-05-08T16:48:57.531Z,50.16
2019-05-08T16:51:23.612Z,49.94
2019-05-08T16:53:49.731Z,49.85
2019-05-08T16:56:20.125Z,49.74
2019-05-08T16:58:46.303Z,50.30
2019-05-08T17:01:13.330Z,50.87
2019-05-08T17:03:39.493Z,51.42
2019-05-08T17:06:05.572Z,50.38
2019-05-08T17:08:34.086Z,50.65
2019-05-08T17:10:59.604Z,50.40
2019-05-08T17:13:25.677Z,50.43
2019-05-08T17:15:53.876Z,50.34
2019-05-08T17:18:19.715Z,50.03
2019-05-08T17:20:47.744Z,49.24
2019-05-08T17:23:30.848Z,49.41
2019-05-08T17:25:56.880Z,49.31
2019-05-08T17:28:27.366Z,49.14
2019-05-08T17:31:04.173Z,49.04
2019-05-08T17:33:30.330Z,48.86
2019-05-08T17:35:58.276Z,48.11
2019-05-08T17:38:26.172Z,47.62
2019-05-08T17:40:52.164Z,47.46
2019-05-08T17:43:19.172Z,47.53
2019-05-08T17:45:45.736Z,47.54
2019-05-08T17:48:13.559Z,47.32
2019-05-08T17:50:39.712Z,47.34
2019-05-08T17:53:05.701Z,47.62
2019-05-08T17:55:33.805Z,52.01
2019-05-08T17:57:59.639Z,51.50
2019-05-08T18:00:26.248Z,51.46
2019-05-08T18:02:53.783Z,52.02
2019-05-08T18:05:19.918Z,51.95
2019-05-08T18:07:45.924Z,52.19
2019-05-08T18:10:13.323Z,51.38
2019-05-08T18:12:39.475Z,51.80
2019-05-08T18:15:07.799Z,52.25
2019-05-08T18:17:43.170Z,51.95
2019-05-08T18:20:17.068Z,52.67
2019-05-08T18:22:44.961Z,52.70
2019-05-08T18:25:29.090Z,52.53
2019-05-08T18:27:55.160Z,52.34
2019-05-08T18:30:34.063Z,53.19
2019-05-08T18:33:04.251Z,52.87
2019-05-08T18:35:29.665Z,53.17
2019-05-08T18:37:55.836Z,53.50
2019-05-08T18:40:23.871Z,53.22
2019-05-08T18:42:49.848Z,53.17
2019-05-08T18:45:15.972Z,52.26
2019-05-08T18:47:44.034Z,52.81
2019-05-08T18:50:10.283Z,52.49
2019-05-08T18:52:38.305Z,53.41
2019-05-08T18:55:23.829Z,52.60
2019-05-08T18:57:49.680Z,53.19
2019-05-08T19:00:18.193Z,52.97
2019-05-08T19:02:44.312Z,52.75
2019-05-08T19:05:10.644Z,53.31
2019-05-08T19:07:36.615Z,53.61
2019-05-08T19:10:06.452Z,53.73
2019-05-08T19:12:34.254Z,53.54
2019-05-08T19:15:00.116Z,52.61
2019-05-08T19:17:26.131Z,52.99
2019-05-08T19:20:10.502Z,52.93
2019-05-08T19:22:36.478Z,52.58
2019-05-08T19:25:04.615Z,53.55
2019-05-08T19:27:49.036Z,53.38
2019-05-08T19:30:15.317Z,53.24
2019-05-08T19:32:43.231Z,53.08
2019-05-08T19:35:09.461Z,54.45
2019-05-08T19:37:35.523Z,53.64
2019-05-08T19:40:04.264Z,54.60
2019-05-08T19:42:33.751Z,55.61
2019-05-08T19:44:59.796Z,55.80
2019-05-08T19:47:25.884Z,56.27
2019-05-08T19:49:53.888Z,56.05
2019-05-08T19:52:19.815Z,56.33
2019-05-08T19:54:45.799Z,56.78
2019-05-08T19:57:13.730Z,57.36
2019-05-08T19:59:39.711Z,57.21
2019-05-08T20:02:05.738Z,57.31
2019-05-08T20:04:38.966Z,57.55
2019-05-08T20:06:59.664Z,57.32
2019-05-08T20:09:25.774Z,56.90
2019-05-08T20:11:53.477Z,56.69
2019-05-08T20:14:19.677Z,56.53
2019-05-08T20:16:45.700Z,56.70
2019-05-08T20:19:13.835Z,56.15
2019-05-08T20:21:43.175Z,56.15
2019-05-08T20:24:09.345Z,56.47
2019-05-08T20:26:35.318Z,56.53
2019-05-08T20:29:03.381Z,56.40
2019-05-08T20:31:33.442Z,55.86
2019-05-08T20:33:59.064Z,56.18
2019-05-08T20:36:25.201Z,55.60
2019-05-08T20:38:53.107Z,55.81
2019-05-08T20:41:20.456Z,55.07
2019-05-08T20:43:46.678Z,55.45
2019-05-08T20:46:12.668Z,55.66
2019-05-08T20:48:38.695Z,55.76
2019-05-08T20:51:05.008Z,55.24
2019-05-08T20:53:33.566Z,55.23
2019-05-08T20:55:58.896Z,54.79
2019-05-08T20:58:24.911Z,54.59
2019-05-08T21:00:50.883Z,54.79
2019-05-08T21:03:16.921Z,54.10
2019-05-08T21:05:43.334Z,54.38
2019-05-08T21:08:09.497Z,54.39
2019-05-08T21:10:37.475Z,54.11
2019-05-08T21:13:03.487Z,54.29
2019-05-08T21:15:29.468Z,54.90
2019-05-08T21:17:58.834Z,54.21
2019-05-08T21:20:33.290Z,54.28
2019-05-08T21:23:03.932Z,54.48
2019-05-08T21:25:29.909Z,54.63
2019-05-08T21:27:56.216Z,54.76
2019-05-08T21:30:23.413Z,55.06
2019-05-08T21:32:49.612Z,55.32
2019-05-08T21:35:15.583Z,55.29
2019-05-08T21:37:43.294Z,55.02
2019-05-08T21:40:09.671Z,55.53
2019-05-08T21:42:35.721Z,55.47
2019-05-08T21:45:02.994Z,55.64
2019-05-08T21:47:28.999Z,55.81
2019-05-08T21:49:59.569Z,55.95
2019-05-08T21:52:23.494Z,56.15
2019-05-08T21:54:49.714Z,56.00
2019-05-08T21:57:15.671Z,56.26
2019-05-08T21:59:44.437Z,56.49
2019-05-08T22:02:09.733Z,56.80
2019-05-08T22:04:35.772Z,56.67
2019-05-08T22:07:03.899Z,57.11
2019-05-08T22:09:40.984Z,57.20
2019-05-08T22:11:57.787Z,57.22
2019-05-08T22:14:23.997Z,57.43
2019-05-08T22:16:50.031Z,58.07
2019-05-08T22:19:16.058Z,58.42
2019-05-08T22:21:44.013Z,59.25
2019-05-08T22:24:09.968Z,60.71
2019-05-08T22:26:35.955Z,60.99
2019-05-08T22:29:03.307Z,61.10
2019-05-08T22:31:29.594Z,61.23
2019-05-08T22:34:00.013Z,62.07
2019-05-08T22:36:33.247Z,62.48
2019-05-08T22:38:59.768Z,63.23
2019-05-08T22:41:25.785Z,63.90
2019-05-08T22:43:52.918Z,64.19
2019-05-08T22:46:19.054Z,64.98
2019-05-08T22:48:45.105Z,64.93
2019-05-08T22:51:11.079Z,65.79
2019-05-08T22:53:37.108Z,65.00
2019-05-08T22:56:03.310Z,65.54
2019-05-08T22:58:29.407Z,66.13
2019-05-08T23:00:55.548Z,66.06
2019-05-08T23:03:23.556Z,65.93
2019-05-08T23:05:49.586Z,66.20
2019-05-08T23:08:16.466Z,66.48
2019-05-08T23:10:44.293Z,67.13
2019-05-08T23:13:13.949Z,67.49
2019-05-08T23:15:41.189Z,68.23
2019-05-08T23:18:07.263Z,68.07
2019-05-08T23:20:33.410Z,68.68
2019-05-08T23:22:59.415Z,68.88
2019-05-08T23:25:26.532Z,69.54
2019-05-08T23:27:52.528Z,69.57
2019-05-08T23:30:18.559Z,69.88
2019-05-08T23:32:44.566Z,69.58
2019-05-08T23:35:13.649Z,70.07
2019-05-08T23:37:39.762Z,70.14
2019-05-08T23:40:20.500Z,70.57
2019-05-08T23:42:34.254Z,70.78
2019-05-08T23:45:04.208Z,70.94
2019-05-08T23:47:30.221Z,71.01
2019-05-08T23:49:56.228Z,72.31
2019-05-08T23:52:23.410Z,73.14
2019-05-08T23:54:49.656Z,73.01
2019-05-08T23:57:15.666Z,72.95
2019-05-08T23:59:43.753Z,73.61
